createdAt,value
2016-10-21T00:00:44.845Z,0
2016-10-21T00:01:44.895Z,0
2016-10-21T00:02:44.994Z,0
2016-10-21T00:03:45.026Z,0
2016-10-21T00:04:45.184Z,0
2016-10-21T00:05:45.130Z,0
2016-10-21T00:06:45.168Z,0
2016-10-21T00:07:45.260Z,0
2016-10-21T00:08:45.302Z,0
2016-10-21T00:09:45.355Z,0
2016-10-21T00:10:45.385Z,0
2016-10-21T00:11:45.429Z,0
2016-10-21T00:12:46.043Z,0
2016-10-21T00:13:46.066Z,0
2016-10-21T00:14:45.623Z,0
2016-10-21T00:15:45.768Z,0
2016-10-21T00:16:45.728Z,0
2016-10-21T00:17:45.772Z,0
2016-10-21T00:18:45.821Z,0
2016-10-21T00:19:46.394Z,0
2016-10-21T00:20:46.091Z,0
2016-10-21T00:21:45.981Z,0
2016-10-21T00:22:46.022Z,0
2016-10-21T00:23:46.065Z,0
2016-10-21T00:24:46.166Z,0
2016-10-21T00:25:46.314Z,0
2016-10-21T00:26:46.238Z,0
2016-10-21T00:27:46.842Z,0
2016-10-21T00:28:46.354Z,0
2016-10-21T00:29:46.413Z,0
2016-10-21T00:30:46.609Z,0
2016-10-21T00:31:46.514Z,0
2016-10-21T00:32:46.584Z,0
2016-10-21T00:33:46.607Z,0
2016-10-21T00:34:46.741Z,0
2016-10-21T00:35:46.782Z,0
2016-10-21T00:36:46.824Z,0
2016-10-21T00:37:46.849Z,0
2016-10-21T00:38:47.404Z,0
2016-10-21T00:39:46.945Z,0
2016-10-21T00:40:47.035Z,0
2016-10-21T00:41:47.176Z,0
2016-10-21T00:42:47.143Z,0
2016-10-21T00:43:47.665Z,0
2016-10-21T00:44:47.767Z,0
2016-10-21T00:45:47.274Z,0
2016-10-21T00:46:47.476Z,0
2016-10-21T00:47:47.372Z,0
2016-10-21T00:48:47.949Z,0
2016-10-21T00:49:47.514Z,0
2016-10-21T00:50:47.558Z,0
2016-10-21T00:51:47.688Z,0
2016-10-21T00:52:47.664Z,0
2016-10-21T00:53:47.707Z,0
2016-10-21T00:54:47.760Z,0
2016-10-21T00:55:47.818Z,0
2016-10-21T00:56:48.466Z,0
2016-10-21T00:57:47.890Z,0
2016-10-21T00:58:47.970Z,0
2016-10-21T00:59:48.024Z,0
2016-10-21T01:00:48.099Z,0
2016-10-21T01:01:48.214Z,0
2016-10-21T01:02:48.208Z,0
2016-10-21T01:03:48.257Z,0
2016-10-21T01:04:48.282Z,0
2016-10-21T01:05:48.328Z,0
2016-10-21T01:06:49.036Z,0
2016-10-21T01:07:48.404Z,0
2016-10-21T01:08:48.509Z,0
2016-10-21T01:09:48.548Z,0
2016-10-21T01:10:48.610Z,0
2016-10-21T01:11:48.644Z,0
2016-10-21T01:12:48.703Z,0
2016-10-21T01:13:48.758Z,0
2016-10-21T01:14:48.821Z,0
2016-10-21T01:15:48.893Z,0
2016-10-21T01:16:48.956Z,0
2016-10-21T01:17:49.129Z,0
2016-10-21T01:18:49.017Z,0
2016-10-21T01:19:49.636Z,0
2016-10-21T01:20:49.158Z,0
2016-10-21T01:21:49.193Z,0
2016-10-21T01:22:49.361Z,0
2016-10-21T01:23:49.335Z,0
2016-10-21T01:24:49.841Z,0
2016-10-21T01:25:49.942Z,0
2016-10-21T01:26:49.482Z,0
2016-10-21T01:27:50.158Z,0
2016-10-21T01:28:49.554Z,0
2016-10-21T01:29:49.591Z,0
2016-10-21T01:30:49.647Z,0
2016-10-21T01:31:49.709Z,0
2016-10-21T01:32:49.894Z,0
2016-10-21T01:33:49.809Z,0
2016-10-21T01:34:49.854Z,0
2016-10-21T01:35:49.953Z,0
2016-10-21T01:36:49.988Z,0
2016-10-21T01:37:50.144Z,0
2016-10-21T01:38:50.076Z,0
2016-10-21T01:39:50.133Z,0
2016-10-21T01:40:50.751Z,0
2016-10-21T01:41:50.231Z,0
2016-10-21T01:42:50.314Z,0
2016-10-21T01:43:50.384Z,0
2016-10-21T01:44:50.372Z,0
2016-10-21T01:45:50.462Z,0
2016-10-21T01:46:50.518Z,0
2016-10-21T01:47:50.522Z,0
2016-10-21T01:48:50.603Z,0
2016-10-21T01:49:50.677Z,0
2016-10-21T01:50:50.756Z,0
2016-10-21T01:51:50.747Z,0
2016-10-21T01:52:50.826Z,0
2016-10-21T01:53:50.988Z,0
2016-10-21T01:54:50.923Z,0
2016-10-21T01:55:50.984Z,0
2016-10-21T01:56:51.050Z,0
2016-10-21T01:57:51.095Z,0
2016-10-21T01:58:51.777Z,0
2016-10-21T01:59:51.252Z,0
2016-10-21T02:00:51.249Z,0
2016-10-21T02:01:51.297Z,0
2016-10-21T02:02:51.359Z,0
2016-10-21T02:03:52.057Z,0
2016-10-21T02:04:51.461Z,0
2016-10-21T02:05:51.497Z,0
2016-10-21T02:06:51.538Z,0
2016-10-21T02:07:51.606Z,0
2016-10-21T02:08:52.477Z,0
2016-10-21T02:09:51.735Z,0
2016-10-21T02:10:51.845Z,0
2016-10-21T02:11:51.816Z,0
2016-10-21T02:12:51.938Z,0
2016-10-21T02:13:52.033Z,0
2016-10-21T02:14:51.975Z,0
2016-10-21T02:15:52.029Z,0
2016-10-21T02:16:52.068Z,0
2016-10-21T02:17:52.135Z,0
2016-10-21T02:18:52.286Z,0
2016-10-21T02:19:52.213Z,0
2016-10-21T02:20:52.320Z,0
2016-10-21T02:21:52.362Z,0
2016-10-21T02:22:52.438Z,0
2016-10-21T02:23:52.476Z,0
2016-10-21T02:24:52.505Z,0
2016-10-21T02:25:52.542Z,0
2016-10-21T02:26:52.620Z,0
2016-10-21T02:27:52.662Z,0
2016-10-21T02:28:52.739Z,0
2016-10-21T02:29:52.824Z,0
2016-10-21T02:30:52.837Z,0
2016-10-21T02:31:52.860Z,0
2016-10-21T02:32:52.936Z,0
2016-10-21T02:33:53.512Z,0
2016-10-21T02:34:53.693Z,0
2016-10-21T02:35:53.155Z,0
2016-10-21T02:36:53.151Z,0
2016-10-21T02:37:53.241Z,0
2016-10-21T02:38:53.268Z,0
2016-10-21T02:39:53.399Z,0
2016-10-21T02:40:53.399Z,0
2016-10-21T02:41:53.447Z,0
2016-10-21T02:42:53.527Z,0
2016-10-21T02:43:53.493Z,0
2016-10-21T02:44:53.647Z,0
2016-10-21T02:45:53.613Z,0
2016-10-21T02:46:53.667Z,0
2016-10-21T02:47:53.701Z,0
2016-10-21T02:48:53.817Z,0
2016-10-21T02:49:53.942Z,0
2016-10-21T02:50:53.863Z,0
2016-10-21T02:51:53.957Z,0
2016-10-21T02:52:53.958Z,0
2016-10-21T02:53:54.055Z,0
2016-10-21T02:54:54.167Z,0
2016-10-21T02:55:54.153Z,0
2016-10-21T02:56:54.189Z,0
2016-10-21T02:57:54.258Z,0
2016-10-21T02:58:54.308Z,0
2016-10-21T02:59:54.389Z,0
2016-10-21T03:00:54.392Z,0
2016-10-21T03:01:55.006Z,0
2016-10-21T03:02:54.514Z,0
2016-10-21T03:03:54.573Z,0
2016-10-21T03:04:54.620Z,0
2016-10-21T03:05:54.830Z,0
2016-10-21T03:06:54.745Z,0
2016-10-21T03:07:54.775Z,0
2016-10-21T03:08:54.851Z,0
2016-10-21T03:09:54.908Z,0
2016-10-21T03:10:55.627Z,0
2016-10-21T03:11:54.987Z,0
2016-10-21T03:12:55.036Z,0
2016-10-21T03:13:55.150Z,0
2016-10-21T03:14:55.140Z,0
2016-10-21T03:15:55.297Z,0
2016-10-21T03:16:55.321Z,0
2016-10-21T03:17:55.822Z,0
2016-10-21T03:18:55.376Z,0
2016-10-21T03:19:55.433Z,0
2016-10-21T03:20:55.608Z,0
2016-10-21T03:21:55.561Z,0
2016-10-21T03:22:55.580Z,0
2016-10-21T03:23:55.643Z,0
2016-10-21T03:24:55.708Z,0
2016-10-21T03:25:55.884Z,0
2016-10-21T03:26:55.851Z,0
2016-10-21T03:27:55.864Z,0
2016-10-21T03:28:55.926Z,0
2016-10-21T03:29:55.955Z,0
2016-10-21T03:30:56.083Z,0
2016-10-21T03:31:56.081Z,0
2016-10-21T03:32:56.113Z,0
2016-10-21T03:33:56.143Z,0
2016-10-21T03:34:56.761Z,0
2016-10-21T03:35:56.875Z,0
2016-10-21T03:36:56.286Z,0
2016-10-21T03:37:56.366Z,0
2016-10-21T03:38:56.436Z,0
2016-10-21T03:39:56.481Z,0
2016-10-21T03:40:56.533Z,0
2016-10-21T03:41:56.579Z,0
2016-10-21T03:42:56.652Z,0
2016-10-21T03:43:56.666Z,0
2016-10-21T03:44:56.763Z,0
2016-10-21T03:45:56.816Z,0
2016-10-21T03:46:56.933Z,0
2016-10-21T03:47:56.916Z,0
2016-10-21T03:48:56.959Z,0
2016-10-21T03:49:57.020Z,0
2016-10-21T03:50:57.105Z,0
2016-10-21T03:51:57.275Z,0
2016-10-21T03:52:57.165Z,0
2016-10-21T03:53:58.319Z,0
2016-10-21T03:54:57.250Z,0
2016-10-21T03:55:57.337Z,0
2016-10-21T03:56:57.507Z,0
2016-10-21T03:57:57.419Z,0
2016-10-21T03:58:57.448Z,0
2016-10-21T03:59:57.569Z,0
2016-10-21T04:00:57.565Z,0
2016-10-21T04:01:57.763Z,0
2016-10-21T04:02:57.694Z,0
2016-10-21T04:03:57.751Z,0
2016-10-21T04:04:57.811Z,0
2016-10-21T04:05:57.872Z,0
2016-10-21T04:06:57.919Z,0
2016-10-21T04:07:57.965Z,0
2016-10-21T04:08:58.013Z,0
2016-10-21T04:09:58.058Z,0
2016-10-21T04:10:58.103Z,0
2016-10-21T04:11:58.151Z,0
2016-10-21T04:12:58.266Z,0
2016-10-21T04:13:58.290Z,0
2016-10-21T04:14:58.330Z,0
2016-10-21T04:15:58.368Z,0
2016-10-21T04:16:58.458Z,0
2016-10-21T04:17:58.556Z,0
2016-10-21T04:18:58.547Z,0
2016-10-21T04:19:58.628Z,0
2016-10-21T04:20:58.678Z,0
2016-10-21T04:21:58.735Z,0
2016-10-21T04:22:58.868Z,0
2016-10-21T04:23:58.807Z,0
2016-10-21T04:24:58.854Z,0
2016-10-21T04:25:58.934Z,0
2016-10-21T04:26:58.942Z,0
2016-10-21T04:27:59.135Z,0
2016-10-21T04:28:59.074Z,0
2016-10-21T04:29:59.139Z,0
2016-10-21T04:30:59.213Z,0
2016-10-21T04:31:59.238Z,0
2016-10-21T04:32:59.357Z,0
2016-10-21T04:33:59.370Z,0
2016-10-21T04:34:59.403Z,0
2016-10-21T04:35:59.487Z,0
2016-10-21T04:36:59.530Z,0
2016-10-21T04:37:59.721Z,0
2016-10-21T04:38:59.664Z,0
2016-10-21T04:39:59.669Z,0
2016-10-21T04:40:59.728Z,0
2016-10-21T04:41:59.752Z,0
2016-10-21T04:42:59.814Z,0
2016-10-21T04:43:59.890Z,0
2016-10-21T04:44:59.894Z,0
2016-10-21T04:45:59.993Z,0
2016-10-21T04:47:00.070Z,0
2016-10-21T04:48:00.114Z,0
2016-10-21T04:49:00.216Z,0
2016-10-21T04:50:00.180Z,0
2016-10-21T04:51:00.256Z,0
2016-10-21T04:52:00.298Z,0
2016-10-21T04:53:00.365Z,0
2016-10-21T04:54:00.514Z,0
2016-10-21T04:55:00.480Z,0
2016-10-21T04:56:00.553Z,0
2016-10-21T04:57:00.565Z,0
2016-10-21T04:58:00.612Z,0
2016-10-21T04:59:00.806Z,0
2016-10-21T05:00:00.727Z,0
2016-10-21T05:01:00.793Z,0
2016-10-21T05:02:00.829Z,0
2016-10-21T05:03:00.891Z,0
2016-10-21T05:04:01.041Z,0
2016-10-21T05:05:00.993Z,0
2016-10-21T05:06:01.071Z,0
2016-10-21T05:07:01.084Z,0
2016-10-21T05:08:01.142Z,0
2016-10-21T05:09:01.305Z,0
2016-10-21T05:10:01.250Z,0
2016-10-21T05:11:01.308Z,0
2016-10-21T05:12:01.890Z,0
2016-10-21T05:13:01.393Z,0
2016-10-21T05:14:01.426Z,0
2016-10-21T05:15:01.570Z,0
2016-10-21T05:16:01.539Z,0
2016-10-21T05:17:01.627Z,0
2016-10-21T05:18:01.663Z,0
2016-10-21T05:19:01.743Z,0
2016-10-21T05:20:01.908Z,0
2016-10-21T05:21:01.802Z,0
2016-10-21T05:22:01.910Z,0
2016-10-21T05:23:02.004Z,0
2016-10-21T05:24:01.970Z,0
2016-10-21T05:25:02.666Z,0
2016-10-21T05:26:02.153Z,0
2016-10-21T05:27:02.143Z,0
2016-10-21T05:28:02.217Z,0
2016-10-21T05:29:02.270Z,0
2016-10-21T05:30:02.402Z,0
2016-10-21T05:31:02.371Z,0
2016-10-21T05:32:02.438Z,0
2016-10-21T05:33:02.497Z,0
2016-10-21T05:34:02.503Z,0
2016-10-21T05:35:03.099Z,0
2016-10-21T05:36:02.582Z,0
2016-10-21T05:37:03.250Z,0
2016-10-21T05:38:02.726Z,0
2016-10-21T05:39:02.756Z,0
2016-10-21T05:40:02.953Z,0
2016-10-21T05:41:03.415Z,0
2016-10-21T05:42:02.965Z,0
2016-10-21T05:43:03.025Z,0
2016-10-21T05:44:03.046Z,0
2016-10-21T05:45:03.051Z,0
2016-10-21T05:46:03.142Z,0
2016-10-21T05:47:03.213Z,0
2016-10-21T05:48:03.274Z,0
2016-10-21T05:49:03.300Z,0
2016-10-21T05:50:03.337Z,0
2016-10-21T05:51:03.958Z,0
2016-10-21T05:52:03.475Z,0
2016-10-21T05:53:03.491Z,0
2016-10-21T05:54:03.609Z,0
2016-10-21T05:55:03.665Z,0
2016-10-21T05:56:03.806Z,0
2016-10-21T05:57:03.759Z,0
2016-10-21T05:58:03.787Z,0
2016-10-21T05:59:03.814Z,0
2016-10-21T06:00:03.868Z,0
2016-10-21T06:01:04.004Z,0
2016-10-21T06:02:03.980Z,0
2016-10-21T06:03:04.055Z,0
2016-10-21T06:04:04.098Z,0
2016-10-21T06:05:04.168Z,0
2016-10-21T06:06:04.278Z,0
2016-10-21T06:07:04.226Z,0
2016-10-21T06:08:04.293Z,0
2016-10-21T06:09:04.888Z,0
2016-10-21T06:10:04.931Z,0
2016-10-21T06:11:04.547Z,0
2016-10-21T06:12:04.551Z,0
2016-10-21T06:13:04.567Z,0
2016-10-21T06:14:04.625Z,0
2016-10-21T06:15:04.670Z,0
2016-10-21T06:16:04.831Z,0
2016-10-21T06:17:04.788Z,0
2016-10-21T06:18:04.853Z,0
2016-10-21T06:19:04.870Z,0
2016-10-21T06:20:04.953Z,0
2016-10-21T06:21:05.070Z,0
2016-10-21T06:22:05.033Z,0
2016-10-21T06:23:05.084Z,0
2016-10-21T06:24:05.149Z,0
2016-10-21T06:25:05.152Z,0
2016-10-21T06:26:05.215Z,0
2016-10-21T06:27:05.794Z,0
2016-10-21T06:28:05.328Z,0
2016-10-21T06:29:05.390Z,0
2016-10-21T06:30:05.419Z,0
2016-10-21T06:31:05.483Z,0
2016-10-21T06:32:05.655Z,0
2016-10-21T06:33:05.579Z,0
2016-10-21T06:34:06.185Z,0
2016-10-21T06:35:05.704Z,0
2016-10-21T06:36:05.799Z,0
2016-10-21T06:37:05.916Z,0
2016-10-21T06:38:05.844Z,0
2016-10-21T06:39:05.915Z,0
2016-10-21T06:40:05.937Z,0
2016-10-21T06:41:06.055Z,0
2016-10-21T06:42:06.184Z,0
2016-10-21T06:43:06.095Z,0
2016-10-21T06:44:06.136Z,0
2016-10-21T06:45:06.228Z,0
2016-10-21T06:46:06.250Z,0
2016-10-21T06:47:06.402Z,0
2016-10-21T06:48:06.380Z,0
2016-10-21T06:49:06.442Z,0
2016-10-21T06:50:06.450Z,0
2016-10-21T06:51:06.575Z,0
2016-10-21T06:52:07.222Z,0
2016-10-21T06:53:06.681Z,0
2016-10-21T06:54:06.691Z,0
2016-10-21T06:55:06.754Z,0
2016-10-21T06:56:06.763Z,0
2016-10-21T06:57:06.960Z,0
2016-10-21T06:58:06.883Z,0
2016-10-21T06:59:06.986Z,0
2016-10-21T07:00:06.978Z,0
2016-10-21T07:01:07.080Z,0
2016-10-21T07:02:07.224Z,0
2016-10-21T07:03:07.158Z,0
2016-10-21T07:04:07.206Z,0
2016-10-21T07:05:07.298Z,0
2016-10-21T07:06:07.316Z,0
2016-10-21T07:07:07.392Z,0
2016-10-21T07:08:07.421Z,0
2016-10-21T07:09:07.483Z,0
2016-10-21T07:10:07.517Z,0
2016-10-21T07:11:07.577Z,0
2016-10-21T07:12:07.640Z,0
2016-10-21T07:13:07.758Z,0
2016-10-21T07:14:07.705Z,0
2016-10-21T07:15:07.773Z,0
2016-10-21T07:16:07.831Z,0
2016-10-21T07:17:08.397Z,0
2016-10-21T07:18:08.035Z,0
2016-10-21T07:19:08.029Z,0
2016-10-21T07:20:08.544Z,0
2016-10-21T07:21:08.108Z,0
2016-10-21T07:22:08.156Z,0
2016-10-21T07:23:08.339Z,0
2016-10-21T07:24:08.229Z,0
2016-10-21T07:25:08.315Z,0
2016-10-21T07:26:08.337Z,0
2016-10-21T07:27:08.396Z,0
2016-10-21T07:28:08.565Z,0
2016-10-21T07:29:08.553Z,0
2016-10-21T07:30:08.580Z,0
2016-10-21T07:31:08.616Z,0
2016-10-21T07:32:08.680Z,0
2016-10-21T07:33:09.337Z,0
2016-10-21T07:34:09.297Z,0
2016-10-21T07:35:08.836Z,0
2016-10-21T07:36:08.888Z,0
2016-10-21T07:37:08.979Z,0
2016-10-21T07:38:09.158Z,0
2016-10-21T07:39:09.073Z,0
2016-10-21T07:40:09.083Z,0
2016-10-21T07:41:09.138Z,0
2016-10-21T07:42:09.202Z,0
2016-10-21T07:43:09.249Z,0
2016-10-21T07:44:09.302Z,0
2016-10-21T07:45:09.341Z,0
2016-10-21T07:46:09.378Z,0
2016-10-21T07:47:09.438Z,0
2016-10-21T07:48:09.498Z,0
2016-10-21T07:49:09.654Z,0
2016-10-21T07:50:09.645Z,0
2016-10-21T07:51:09.625Z,0
2016-10-21T07:52:10.272Z,0
2016-10-21T07:53:09.760Z,0
2016-10-21T07:54:09.927Z,0
2016-10-21T07:55:09.897Z,0
2016-10-21T07:56:09.925Z,0
2016-10-21T07:57:09.976Z,0
2016-10-21T07:58:10.009Z,0
2016-10-21T07:59:10.216Z,0
2016-10-21T08:00:10.111Z,0
2016-10-21T08:01:10.145Z,0
2016-10-21T08:02:10.262Z,0
2016-10-21T08:03:10.276Z,0
2016-10-21T08:04:10.436Z,0
2016-10-21T08:05:10.433Z,0
2016-10-21T08:06:10.455Z,0
2016-10-21T08:07:10.454Z,0
2016-10-21T08:08:11.087Z,0
2016-10-21T08:09:10.742Z,0
2016-10-21T08:10:10.646Z,0
2016-10-21T08:11:11.261Z,0
2016-10-21T08:12:10.787Z,0
2016-10-21T08:13:11.359Z,0
2016-10-21T08:14:10.855Z,0
2016-10-21T08:15:10.957Z,0
2016-10-21T08:16:10.979Z,4
2016-10-21T08:17:10.980Z,4
2016-10-21T08:18:11.065Z,4
2016-10-21T08:19:11.136Z,0
2016-10-21T08:20:11.786Z,4
2016-10-21T08:21:11.263Z,4
2016-10-21T08:22:11.251Z,8
2016-10-21T08:23:11.359Z,12
2016-10-21T08:24:11.340Z,12
2016-10-21T08:25:11.515Z,12
2016-10-21T08:26:11.490Z,16
2016-10-21T08:27:11.527Z,16
2016-10-21T08:28:12.121Z,24
2016-10-21T08:29:11.631Z,24
2016-10-21T08:30:11.800Z,36
2016-10-21T08:31:11.724Z,48
2016-10-21T08:32:11.769Z,60
2016-10-21T08:33:11.847Z,68
2016-10-21T08:34:11.908Z,76
2016-10-21T08:35:12.041Z,84
2016-10-21T08:36:12.518Z,96
2016-10-21T08:37:12.050Z,108
2016-10-21T08:38:12.109Z,124
2016-10-21T08:39:12.140Z,144
2016-10-21T08:40:12.278Z,168
2016-10-21T08:41:12.263Z,192
2016-10-21T08:42:12.288Z,240
2016-10-21T08:43:12.367Z,276
2016-10-21T08:44:12.399Z,352
2016-10-21T08:45:12.477Z,416
2016-10-21T08:46:12.606Z,448
2016-10-21T08:47:12.624Z,452
2016-10-21T08:48:12.623Z,428
2016-10-21T08:49:12.657Z,336
2016-10-21T08:50:12.732Z,276
2016-10-21T08:51:12.908Z,248
2016-10-21T08:52:12.841Z,244
2016-10-21T08:53:12.916Z,248
2016-10-21T08:54:12.952Z,248
2016-10-21T08:55:12.969Z,228
2016-10-21T08:56:13.215Z,220
2016-10-21T08:57:13.588Z,208
2016-10-21T08:58:13.166Z,208
2016-10-21T08:59:13.204Z,208
2016-10-21T09:00:13.267Z,216
2016-10-21T09:01:13.922Z,216
2016-10-21T09:02:13.350Z,220
2016-10-21T09:03:13.403Z,212
2016-10-21T09:04:13.954Z,196
2016-10-21T09:05:14.106Z,192
2016-10-21T09:06:13.718Z,172
2016-10-21T09:07:13.629Z,160
2016-10-21T09:08:13.675Z,144
2016-10-21T09:09:13.723Z,136
2016-10-21T09:10:13.769Z,132
2016-10-21T09:11:13.923Z,128
2016-10-21T09:12:13.874Z,132
2016-10-21T09:13:13.936Z,132
2016-10-21T09:14:14.489Z,136
2016-10-21T09:15:14.079Z,136
2016-10-21T09:16:14.072Z,144
2016-10-21T09:17:14.124Z,152
2016-10-21T09:18:14.368Z,184
2016-10-21T09:19:14.288Z,208
2016-10-21T09:20:14.291Z,224
2016-10-21T09:21:14.289Z,220
2016-10-21T09:22:14.493Z,184
2016-10-21T09:23:14.952Z,156
2016-10-21T09:24:14.483Z,156
2016-10-21T09:25:14.577Z,156
2016-10-21T09:26:14.640Z,160
2016-10-21T09:27:14.739Z,168
2016-10-21T09:28:14.719Z,184
2016-10-21T09:29:14.781Z,208
2016-10-21T09:30:14.763Z,252
2016-10-21T09:31:14.878Z,312
2016-10-21T09:32:15.809Z,396
2016-10-21T09:33:14.980Z,456
2016-10-21T09:34:14.978Z,488
2016-10-21T09:35:15.102Z,500
2016-10-21T09:36:15.111Z,528
2016-10-21T09:37:15.278Z,556
2016-10-21T09:38:15.240Z,580
2016-10-21T09:39:15.795Z,560
2016-10-21T09:40:15.894Z,560
2016-10-21T09:41:15.913Z,592
2016-10-21T09:42:15.524Z,632
2016-10-21T09:43:16.568Z,728
2016-10-21T09:44:16.031Z,840
2016-10-21T09:45:15.559Z,960
2016-10-21T09:46:16.137Z,1180
2016-10-21T09:47:15.672Z,1488
2016-10-21T09:48:15.740Z,1928
2016-10-21T09:49:15.784Z,1420
2016-10-21T09:50:16.370Z,1124
2016-10-21T09:51:16.625Z,1032
2016-10-21T09:52:15.938Z,1088
2016-10-21T09:53:16.037Z,1188
2016-10-21T09:54:16.094Z,1272
2016-10-21T09:55:16.114Z,1316
2016-10-21T09:56:16.139Z,1488
2016-10-21T09:57:16.212Z,1688
2016-10-21T09:58:16.879Z,1712
2016-10-21T09:59:16.286Z,1796
2016-10-21T10:00:16.337Z,1940
2016-10-21T10:01:16.429Z,2016
2016-10-21T10:02:17.024Z,2112
2016-10-21T10:03:16.639Z,2224
2016-10-21T10:04:16.576Z,2260
2016-10-21T10:05:16.633Z,2504
2016-10-21T10:06:16.702Z,2532
2016-10-21T10:07:16.728Z,2920
2016-10-21T10:08:16.884Z,3336
2016-10-21T10:09:16.856Z,3036
2016-10-21T10:10:17.371Z,2176
2016-10-21T10:11:16.966Z,1952
2016-10-21T10:12:17.033Z,2172
2016-10-21T10:13:17.140Z,2572
2016-10-21T10:14:17.125Z,2964
2016-10-21T10:15:17.173Z,2892
2016-10-21T10:16:17.249Z,2812
2016-10-21T10:17:17.807Z,2736
2016-10-21T10:18:17.390Z,2112
2016-10-21T10:19:17.427Z,1972
2016-10-21T10:20:17.410Z,1988
2016-10-21T10:21:17.972Z,2040
2016-10-21T10:22:17.537Z,2020
2016-10-21T10:23:17.548Z,1928
2016-10-21T10:24:17.603Z,1940
2016-10-21T10:25:17.705Z,1956
2016-10-21T10:26:17.749Z,1984
2016-10-21T10:27:17.814Z,2164
2016-10-21T10:28:17.854Z,2380
2016-10-21T10:29:18.413Z,2748
2016-10-21T10:30:17.941Z,3252
2016-10-21T10:31:18.008Z,2776
2016-10-21T10:32:18.073Z,2696
2016-10-21T10:33:18.087Z,2560
2016-10-21T10:34:18.758Z,2448
2016-10-21T10:35:18.176Z,2236
2016-10-21T10:36:18.780Z,2172
2016-10-21T10:37:18.366Z,2092
2016-10-21T10:38:18.339Z,2012
2016-10-21T10:39:18.515Z,2064
2016-10-21T10:40:18.486Z,2276
2016-10-21T10:41:18.541Z,2504
2016-10-21T10:42:19.059Z,2608
2016-10-21T10:43:18.642Z,2516
2016-10-21T10:44:18.777Z,2220
2016-10-21T10:45:18.718Z,1888
2016-10-21T10:46:18.806Z,1664
2016-10-21T10:47:19.838Z,1592
2016-10-21T10:48:18.875Z,1632
2016-10-21T10:49:19.033Z,1736
2016-10-21T10:50:19.020Z,1840
2016-10-21T10:51:20.093Z,1844
2016-10-21T10:52:19.618Z,1884
2016-10-21T10:53:19.120Z,1848
2016-10-21T10:54:19.183Z,1760
2016-10-21T10:55:19.331Z,1652
2016-10-21T10:56:19.393Z,1540
2016-10-21T10:57:19.419Z,1460
2016-10-21T10:58:19.454Z,1512
2016-10-21T10:59:19.506Z,1796
2016-10-21T11:00:20.175Z,2024
2016-10-21T11:01:20.151Z,2020
2016-10-21T11:02:20.183Z,2120
2016-10-21T11:03:19.674Z,2212
2016-10-21T11:04:20.794Z,2204
2016-10-21T11:05:19.917Z,2280
2016-10-21T11:06:19.870Z,2468
2016-10-21T11:07:20.430Z,2640
2016-10-21T11:08:19.897Z,2736
2016-10-21T11:09:20.016Z,2724
2016-10-21T11:10:20.160Z,2648
2016-10-21T11:11:20.065Z,2576
2016-10-21T11:12:21.200Z,2472
2016-10-21T11:13:20.211Z,2404
2016-10-21T11:14:20.278Z,2460
2016-10-21T11:15:20.882Z,2420
2016-10-21T11:16:20.884Z,2364
2016-10-21T11:17:20.398Z,2288
2016-10-21T11:18:20.461Z,2212
2016-10-21T11:19:21.093Z,2100
2016-10-21T11:20:20.550Z,2024
2016-10-21T11:21:20.602Z,2004
2016-10-21T11:22:20.666Z,1968
2016-10-21T11:23:21.292Z,1752
2016-10-21T11:24:21.315Z,1524
2016-10-21T11:25:21.615Z,1376
2016-10-21T11:26:21.430Z,1396
2016-10-21T11:27:21.505Z,1492
2016-10-21T11:28:21.540Z,1600
2016-10-21T11:29:21.613Z,1692
2016-10-21T11:30:21.126Z,1760
2016-10-21T11:31:21.278Z,1892
2016-10-21T11:32:21.733Z,2160
2016-10-21T11:33:21.270Z,2336
2016-10-21T11:34:21.329Z,2436
2016-10-21T11:35:21.902Z,2356
2016-10-21T11:36:22.225Z,2304
2016-10-21T11:37:21.977Z,2272
2016-10-21T11:38:22.046Z,2332
2016-10-21T11:39:21.558Z,2448
2016-10-21T11:40:21.638Z,2784
2016-10-21T11:41:21.812Z,3080
2016-10-21T11:42:21.748Z,3356
2016-10-21T11:43:21.804Z,3764
2016-10-21T11:44:22.377Z,4568
2016-10-21T11:45:21.941Z,5432
2016-10-21T11:46:22.329Z,6388
2016-10-21T11:47:22.585Z,6240
2016-10-21T11:48:22.854Z,5444
2016-10-21T11:49:22.068Z,4560
2016-10-21T11:50:22.152Z,3752
2016-10-21T11:51:22.288Z,3656
2016-10-21T11:52:22.225Z,3784
2016-10-21T11:53:22.788Z,4064
2016-10-21T11:54:22.328Z,4120
2016-10-21T11:55:22.349Z,2956
2016-10-21T11:56:22.538Z,2140
2016-10-21T11:57:23.010Z,1836
2016-10-21T11:58:23.088Z,1784
2016-10-21T11:59:22.592Z,1812
2016-10-21T12:00:22.699Z,1908
2016-10-21T12:01:23.383Z,2056
2016-10-21T12:02:22.789Z,2164
2016-10-21T12:03:22.861Z,2448
2016-10-21T12:04:22.899Z,2844
2016-10-21T12:05:22.917Z,3196
2016-10-21T12:06:23.698Z,3584
2016-10-21T12:07:23.614Z,3896
2016-10-21T12:08:23.806Z,4052
2016-10-21T12:09:23.185Z,4180
2016-10-21T12:10:23.216Z,4240
2016-10-21T12:11:23.279Z,4208
2016-10-21T12:12:23.299Z,4452
2016-10-21T12:13:23.361Z,4824
2016-10-21T12:14:23.953Z,5176
2016-10-21T12:15:23.407Z,5640
2016-10-21T12:16:24.023Z,5800
2016-10-21T12:17:23.538Z,5276
2016-10-21T12:18:23.583Z,5108
2016-10-21T12:19:23.655Z,5672
2016-10-21T12:20:24.285Z,7088
2016-10-21T12:21:23.759Z,8328
2016-10-21T12:22:25.033Z,9452
2016-10-21T12:23:23.880Z,9104
2016-10-21T12:24:24.419Z,8212
2016-10-21T12:25:23.984Z,7240
2016-10-21T12:26:24.521Z,6268
2016-10-21T12:27:24.225Z,5588
2016-10-21T12:28:24.661Z,5992
2016-10-21T12:29:24.227Z,6188
2016-10-21T12:30:24.234Z,6640
2016-10-21T12:31:24.804Z,6468
2016-10-21T12:32:24.460Z,5700
2016-10-21T12:33:24.451Z,5476
2016-10-21T12:34:24.455Z,4716
2016-10-21T12:35:24.545Z,4604
2016-10-21T12:36:24.550Z,4436
2016-10-21T12:37:24.778Z,4276
2016-10-21T12:38:24.664Z,4188
2016-10-21T12:39:24.752Z,4412
2016-10-21T12:40:24.768Z,4968
2016-10-21T12:41:24.869Z,4924
2016-10-21T12:42:25.012Z,4396
2016-10-21T12:43:24.914Z,4280
2016-10-21T12:44:24.966Z,4520
2016-10-21T12:45:25.050Z,4220
2016-10-21T12:46:25.084Z,3712
2016-10-21T12:47:25.806Z,3652
2016-10-21T12:48:26.144Z,3844
2016-10-21T12:49:25.288Z,3844
2016-10-21T12:50:25.340Z,3856
2016-10-21T12:51:25.357Z,4152
2016-10-21T12:52:25.431Z,4608
2016-10-21T12:53:26.775Z,5008
2016-10-21T12:54:25.600Z,5324
2016-10-21T12:55:25.551Z,5760
2016-10-21T12:56:26.159Z,5604
2016-10-21T12:57:25.699Z,5228
2016-10-21T12:58:25.813Z,5312
2016-10-21T12:59:25.808Z,4664
2016-10-21T13:00:26.068Z,4004
2016-10-21T13:01:25.830Z,3680
2016-10-21T13:02:26.443Z,3552
2016-10-21T13:03:26.072Z,3352
2016-10-21T13:04:26.055Z,3348
2016-10-21T13:05:26.348Z,3372
2016-10-21T13:06:26.736Z,3500
2016-10-21T13:07:26.192Z,3496
2016-10-21T13:08:26.352Z,3128
2016-10-21T13:09:26.815Z,3100
2016-10-21T13:10:26.386Z,3096
2016-10-21T13:11:26.403Z,3112
2016-10-21T13:12:26.484Z,3160
2016-10-21T13:13:26.628Z,3120
2016-10-21T13:14:26.543Z,3052
2016-10-21T13:15:26.664Z,3056
2016-10-21T13:16:26.723Z,3132
2016-10-21T13:17:27.264Z,3156
2016-10-21T13:18:26.903Z,3056
2016-10-21T13:19:26.854Z,3188
2016-10-21T13:20:26.969Z,3464
2016-10-21T13:21:26.952Z,3740
2016-10-21T13:22:26.971Z,4272
2016-10-21T13:23:27.054Z,4984
2016-10-21T13:24:27.591Z,5860
2016-10-21T13:25:27.166Z,6564
2016-10-21T13:26:27.753Z,6624
2016-10-21T13:27:27.752Z,6476
2016-10-21T13:28:27.836Z,5652
2016-10-21T13:29:27.352Z,5220
2016-10-21T13:30:27.401Z,5080
2016-10-21T13:31:27.459Z,4444
2016-10-21T13:32:27.513Z,3920
2016-10-21T13:33:27.579Z,3456
2016-10-21T13:34:27.800Z,3000
2016-10-21T13:35:27.708Z,2764
2016-10-21T13:36:28.268Z,2524
2016-10-21T13:37:27.794Z,2300
2016-10-21T13:38:27.832Z,2160
2016-10-21T13:39:27.987Z,2008
2016-10-21T13:40:28.439Z,1892
2016-10-21T13:41:28.025Z,1780
2016-10-21T13:42:28.101Z,1744
2016-10-21T13:43:28.144Z,1764
2016-10-21T13:44:28.296Z,1796
2016-10-21T13:45:28.213Z,1796
2016-10-21T13:46:28.308Z,1832
2016-10-21T13:47:28.312Z,1828
2016-10-21T13:48:28.405Z,1752
2016-10-21T13:49:28.552Z,1748
2016-10-21T13:50:28.442Z,1744
2016-10-21T13:51:29.675Z,1760
2016-10-21T13:52:29.085Z,1848
2016-10-21T13:53:28.636Z,1952
2016-10-21T13:54:28.785Z,2124
2016-10-21T13:55:28.729Z,2280
2016-10-21T13:56:29.290Z,2472
2016-10-21T13:57:28.813Z,2616
2016-10-21T13:58:28.912Z,2620
2016-10-21T13:59:29.585Z,2728
2016-10-21T14:00:29.024Z,2752
2016-10-21T14:01:29.075Z,2828
2016-10-21T14:02:29.083Z,2716
2016-10-21T14:03:29.129Z,2604
2016-10-21T14:04:30.391Z,2460
2016-10-21T14:05:29.263Z,2348
2016-10-21T14:06:29.344Z,2232
2016-10-21T14:07:29.399Z,2172
2016-10-21T14:08:29.455Z,2152
2016-10-21T14:09:29.976Z,1912
2016-10-21T14:10:30.058Z,1756
2016-10-21T14:11:29.587Z,1724
2016-10-21T14:12:30.671Z,1784